sensor_id;sensor_type;location;lat;lon;timestamp;P1;durP1;ratioP1;P2;durP2;ratioP2
53263;SDS011;39153;52.680;6.172;2022-07-23T00:01:59;7.72;;;4.45;;
53263;SDS011;39153;52.680;6.172;2022-07-23T00:04:25;7.03;;;4.20;;
53263;SDS011;39153;52.680;6.172;2022-07-23T00:06:50;5.53;;;3.90;;
53263;SDS011;39153;52.680;6.172;2022-07-23T00:09:16;5.32;;;4.15;;
53263;SDS011;39153;52.680;6.172;2022-07-23T00:11:42;8.45;;;4.15;;
53263;SDS011;39153;52.680;6.172;2022-07-23T00:14:07;9.43;;;4.30;;
53263;SDS011;39153;52.680;6.172;2022-07-23T00:16:33;7.53;;;4.32;;
53263;SDS011;39153;52.680;6.172;2022-07-23T00:18:58;7.35;;;4.45;;
53263;SDS011;39153;52.680;6.172;2022-07-23T00:21:26;7.82;;;4.20;;
53263;SDS011;39153;52.680;6.172;2022-07-23T00:23:52;7.50;;;4.45;;
53263;SDS011;39153;52.680;6.172;2022-07-23T00:26:17;6.95;;;4.25;;
53263;SDS011;39153;52.680;6.172;2022-07-23T00:28:43;5.32;;;3.80;;
53263;SDS011;39153;52.680;6.172;2022-07-23T00:31:09;5.55;;;4.30;;
53263;SDS011;39153;52.680;6.172;2022-07-23T00:33:34;7.63;;;4.55;;
53263;SDS011;39153;52.680;6.172;2022-07-23T00:36:00;7.60;;;4.78;;
53263;SDS011;39153;52.680;6.172;2022-07-23T00:38:26;7.15;;;4.15;;
53263;SDS011;39153;52.680;6.172;2022-07-23T00:40:51;6.05;;;4.68;;
53263;SDS011;39153;52.680;6.172;2022-07-23T00:43:19;6.70;;;4.32;;
53263;SDS011;39153;52.680;6.172;2022-07-23T00:45:47;8.35;;;4.97;;
53263;SDS011;39153;52.680;6.172;2022-07-23T00:48:12;5.80;;;4.57;;
53263;SDS011;39153;52.680;6.172;2022-07-23T00:50:38;5.18;;;4.30;;
53263;SDS011;39153;52.680;6.172;2022-07-23T00:53:04;7.15;;;4.60;;
53263;SDS011;39153;52.680;6.172;2022-07-23T00:55:31;5.38;;;4.60;;
53263;SDS011;39153;52.680;6.172;2022-07-23T00:57:57;6.28;;;4.35;;
53263;SDS011;39153;52.680;6.172;2022-07-23T01:00:24;7.82;;;4.72;;
53263;SDS011;39153;52.680;6.172;2022-07-23T01:02:49;8.25;;;4.88;;
53263;SDS011;39153;52.680;6.172;2022-07-23T01:05:15;5.45;;;4.40;;
53263;SDS011;39153;52.680;6.172;2022-07-23T01:07:42;9.07;;;4.88;;
53263;SDS011;39153;52.680;6.172;2022-07-23T01:10:08;6.72;;;4.80;;
53263;SDS011;39153;52.680;6.172;2022-07-23T01:12:52;7.75;;;4.38;;
53263;SDS011;39153;52.680;6.172;2022-07-23T01:15:18;7.25;;;5.03;;
53263;SDS011;39153;52.680;6.172;2022-07-23T01:17:44;8.23;;;4.70;;
53263;SDS011;39153;52.680;6.172;2022-07-23T01:20:09;8.57;;;4.30;;
53263;SDS011;39153;52.680;6.172;2022-07-23T01:22:35;8.18;;;4.97;;
53263;SDS011;39153;52.680;6.172;2022-07-23T01:25:01;5.90;;;4.72;;
53263;SDS011;39153;52.680;6.172;2022-07-23T01:27:26;6.30;;;4.70;;
53263;SDS011;39153;52.680;6.172;2022-07-23T01:29:53;6.28;;;4.50;;
53263;SDS011;39153;52.680;6.172;2022-07-23T01:32:20;7.13;;;4.22;;
53263;SDS011;39153;52.680;6.172;2022-07-23T01:34:45;5.97;;;4.40;;
53263;SDS011;39153;52.680;6.172;2022-07-23T01:37:11;6.30;;;4.72;;
53263;SDS011;39153;52.680;6.172;2022-07-23T01:39:36;9.02;;;4.70;;
53263;SDS011;39153;52.680;6.172;2022-07-23T01:42:02;6.00;;;4.43;;
53263;SDS011;39153;52.680;6.172;2022-07-23T01:44:28;7.07;;;4.72;;
53263;SDS011;39153;52.680;6.172;2022-07-23T01:46:54;11.27;;;4.78;;
53263;SDS011;39153;52.680;6.172;2022-07-23T01:49:21;7.30;;;5.15;;
53263;SDS011;39153;52.680;6.172;2022-07-23T01:51:47;6.75;;;4.95;;
53263;SDS011;39153;52.680;6.172;2022-07-23T01:54:28;6.53;;;4.72;;
53263;SDS011;39153;52.680;6.172;2022-07-23T01:56:54;5.88;;;4.25;;
53263;SDS011;39153;52.680;6.172;2022-07-23T01:59:21;8.98;;;4.78;;
53263;SDS011;39153;52.680;6.172;2022-07-23T02:01:47;6.35;;;4.18;;
53263;SDS011;39153;52.680;6.172;2022-07-23T02:04:15;5.88;;;4.20;;
53263;SDS011;39153;52.680;6.172;2022-07-23T02:06:45;5.53;;;3.90;;
53263;SDS011;39153;52.680;6.172;2022-07-23T02:09:11;6.22;;;4.03;;
53263;SDS011;39153;52.680;6.172;2022-07-23T02:11:36;6.30;;;4.07;;
53263;SDS011;39153;52.680;6.172;2022-07-23T02:14:02;6.05;;;3.63;;
53263;SDS011;39153;52.680;6.172;2022-07-23T02:16:28;6.30;;;3.55;;
53263;SDS011;39153;52.680;6.172;2022-07-23T02:18:54;5.18;;;3.20;;
53263;SDS011;39153;52.680;6.172;2022-07-23T02:21:20;4.82;;;3.38;;
53263;SDS011;39153;52.680;6.172;2022-07-23T02:23:46;5.65;;;3.63;;
53263;SDS011;39153;52.680;6.172;2022-07-23T02:26:12;6.50;;;3.40;;
53263;SDS011;39153;52.680;6.172;2022-07-23T02:28:37;5.25;;;3.58;;
53263;SDS011;39153;52.680;6.172;2022-07-23T02:31:03;5.28;;;3.75;;
53263;SDS011;39153;52.680;6.172;2022-07-23T02:33:29;5.45;;;3.95;;
53263;SDS011;39153;52.680;6.172;2022-07-23T02:35:55;5.35;;;4.05;;
53263;SDS011;39153;52.680;6.172;2022-07-23T02:38:20;4.93;;;3.70;;
53263;SDS011;39153;52.680;6.172;2022-07-23T02:40:46;5.60;;;3.80;;
53263;SDS011;39153;52.680;6.172;2022-07-23T02:43:12;4.80;;;3.50;;
53263;SDS011;39153;52.680;6.172;2022-07-23T02:45:37;5.13;;;3.65;;
53263;SDS011;39153;52.680;6.172;2022-07-23T02:48:03;6.57;;;4.00;;
53263;SDS011;39153;52.680;6.172;2022-07-23T02:50:29;7.95;;;4.30;;
53263;SDS011;39153;52.680;6.172;2022-07-23T02:52:55;8.27;;;5.05;;
53263;SDS011;39153;52.680;6.172;2022-07-23T02:55:20;5.72;;;4.07;;
53263;SDS011;39153;52.680;6.172;2022-07-23T02:57:46;6.28;;;5.00;;
53263;SDS011;39153;52.680;6.172;2022-07-23T03:00:12;6.57;;;4.40;;
53263;SDS011;39153;52.680;6.172;2022-07-23T03:02:38;7.07;;;4.30;;
53263;SDS011;39153;52.680;6.172;2022-07-23T03:05:04;7.45;;;4.95;;
53263;SDS011;39153;52.680;6.172;2022-07-23T03:07:30;6.78;;;4.88;;
53263;SDS011;39153;52.680;6.172;2022-07-23T03:09:56;6.97;;;4.15;;
53263;SDS011;39153;52.680;6.172;2022-07-23T03:12:21;6.32;;;4.47;;
53263;SDS011;39153;52.680;6.172;2022-07-23T03:14:47;5.95;;;4.80;;
53263;SDS011;39153;52.680;6.172;2022-07-23T03:17:12;6.07;;;4.18;;
53263;SDS011;39153;52.680;6.172;2022-07-23T03:19:38;7.75;;;4.55;;
53263;SDS011;39153;52.680;6.172;2022-07-23T03:22:04;6.70;;;4.85;;
53263;SDS011;39153;52.680;6.172;2022-07-23T03:24:30;6.45;;;4.25;;
53263;SDS011;39153;52.680;6.172;2022-07-23T03:29:40;3.42;;;1.88;;
53263;SDS011;39153;52.680;6.172;2022-07-23T03:32:06;1.90;;;1.20;;
53263;SDS011;39153;52.680;6.172;2022-07-23T03:34:32;2.45;;;1.40;;
53263;SDS011;39153;52.680;6.172;2022-07-23T03:36:57;2.03;;;1.30;;
53263;SDS011;39153;52.680;6.172;2022-07-23T03:39:23;2.30;;;1.25;;
53263;SDS011;39153;52.680;6.172;2022-07-23T03:41:49;1.73;;;1.23;;
53263;SDS011;39153;52.680;6.172;2022-07-23T03:44:14;9.50;;;1.90;;
53263;SDS011;39153;52.680;6.172;2022-07-23T03:46:40;21.63;;;2.53;;
53263;SDS011;39153;52.680;6.172;2022-07-23T03:49:05;4.97;;;2.20;;
53263;SDS011;39153;52.680;6.172;2022-07-23T03:51:31;3.38;;;2.20;;
53263;SDS011;39153;52.680;6.172;2022-07-23T03:53:57;4.53;;;2.40;;
53263;SDS011;39153;52.680;6.172;2022-07-23T03:56:23;4.30;;;2.97;;
53263;SDS011;39153;52.680;6.172;2022-07-23T03:58:49;4.93;;;2.70;;
53263;SDS011;39153;52.680;6.172;2022-07-23T04:01:14;4.43;;;2.58;;
53263;SDS011;39153;52.680;6.172;2022-07-23T04:03:40;5.35;;;2.60;;
53263;SDS011;39153;52.680;6.172;2022-07-23T04:06:06;3.38;;;2.15;;
53263;SDS011;39153;52.680;6.172;2022-07-23T04:08:32;3.40;;;2.20;;
53263;SDS011;39153;52.680;6.172;2022-07-23T04:10:58;3.10;;;1.70;;
53263;SDS011;39153;52.680;6.172;2022-07-23T04:13:23;4.75;;;1.75;;
53263;SDS011;39153;52.680;6.172;2022-07-23T04:15:49;3.58;;;2.08;;
53263;SDS011;39153;52.680;6.172;2022-07-23T04:18:16;3.30;;;2.13;;
53263;SDS011;39153;52.680;6.172;2022-07-23T04:20:43;4.10;;;2.20;;
53263;SDS011;39153;52.680;6.172;2022-07-23T04:23:09;3.35;;;2.20;;
53263;SDS011;39153;52.680;6.172;2022-07-23T04:25:35;4.30;;;2.60;;
53263;SDS011;39153;52.680;6.172;2022-07-23T04:28:01;3.33;;;2.35;;
53263;SDS011;39153;52.680;6.172;2022-07-23T04:30:26;3.92;;;2.70;;
53263;SDS011;39153;52.680;6.172;2022-07-23T04:32:52;4.50;;;3.10;;
53263;SDS011;39153;52.680;6.172;2022-07-23T04:35:18;4.93;;;3.45;;
53263;SDS011;39153;52.680;6.172;2022-07-23T04:37:44;4.75;;;3.30;;
53263;SDS011;39153;52.680;6.172;2022-07-23T04:40:10;5.93;;;3.30;;
53263;SDS011;39153;52.680;6.172;2022-07-23T04:42:36;6.53;;;3.35;;
53263;SDS011;39153;52.680;6.172;2022-07-23T04:45:02;5.13;;;3.60;;
53263;SDS011;39153;52.680;6.172;2022-07-23T04:47:29;6.03;;;3.30;;
53263;SDS011;39153;52.680;6.172;2022-07-23T04:49:55;5.20;;;3.70;;
53263;SDS011;39153;52.680;6.172;2022-07-23T04:52:21;5.95;;;3.38;;
53263;SDS011;39153;52.680;6.172;2022-07-23T04:54:47;5.32;;;3.03;;
53263;SDS011;39153;52.680;6.172;2022-07-23T04:57:12;3.95;;;2.53;;
53263;SDS011;39153;52.680;6.172;2022-07-23T04:59:38;4.25;;;2.45;;
53263;SDS011;39153;52.680;6.172;2022-07-23T05:02:04;5.97;;;3.10;;
53263;SDS011;39153;52.680;6.172;2022-07-23T05:04:29;5.00;;;3.65;;
53263;SDS011;39153;52.680;6.172;2022-07-23T05:06:56;5.13;;;3.70;;
53263;SDS011;39153;52.680;6.172;2022-07-23T05:09:22;6.25;;;3.75;;
53263;SDS011;39153;52.680;6.172;2022-07-23T05:11:48;5.47;;;3.50;;
53263;SDS011;39153;52.680;6.172;2022-07-23T05:14:14;7.43;;;3.75;;
53263;SDS011;39153;52.680;6.172;2022-07-23T05:16:40;6.35;;;3.75;;
53263;SDS011;39153;52.680;6.172;2022-07-23T05:19:05;6.00;;;4.00;;
53263;SDS011;39153;52.680;6.172;2022-07-23T05:21:31;5.03;;;3.80;;
53263;SDS011;39153;52.680;6.172;2022-07-23T05:23:57;5.30;;;3.90;;
53263;SDS011;39153;52.680;6.172;2022-07-23T05:26:22;8.18;;;4.60;;
53263;SDS011;39153;52.680;6.172;2022-07-23T05:28:49;7.25;;;4.28;;
53263;SDS011;39153;52.680;6.172;2022-07-23T05:31:15;7.20;;;4.85;;
53263;SDS011;39153;52.680;6.172;2022-07-23T05:33:41;8.02;;;4.90;;
53263;SDS011;39153;52.680;6.172;2022-07-23T05:36:07;9.02;;;5.28;;
53263;SDS011;39153;52.680;6.172;2022-07-23T05:38:33;9.70;;;5.38;;
53263;SDS011;39153;52.680;6.172;2022-07-23T05:40:59;7.63;;;5.47;;
53263;SDS011;39153;52.680;6.172;2022-07-23T05:43:25;7.38;;;5.13;;
53263;SDS011;39153;52.680;6.172;2022-07-23T05:45:50;6.80;;;4.93;;
53263;SDS011;39153;52.680;6.172;2022-07-23T05:48:16;8.00;;;4.97;;
53263;SDS011;39153;52.680;6.172;2022-07-23T05:50:42;6.90;;;4.68;;
53263;SDS011;39153;52.680;6.172;2022-07-23T05:53:07;6.40;;;4.60;;
53263;SDS011;39153;52.680;6.172;2022-07-23T05:55:33;7.18;;;4.65;;
53263;SDS011;39153;52.680;6.172;2022-07-23T05:57:59;6.95;;;4.70;;
53263;SDS011;39153;52.680;6.172;2022-07-23T06:00:24;7.47;;;4.72;;
53263;SDS011;39153;52.680;6.172;2022-07-23T06:02:51;7.97;;;4.68;;
53263;SDS011;39153;52.680;6.172;2022-07-23T06:05:17;6.43;;;3.90;;
53263;SDS011;39153;52.680;6.172;2022-07-23T06:07:43;7.93;;;3.60;;
53263;SDS011;39153;52.680;6.172;2022-07-23T06:10:09;6.43;;;3.55;;
53263;SDS011;39153;52.680;6.172;2022-07-23T06:12:34;6.05;;;3.50;;
53263;SDS011;39153;52.680;6.172;2022-07-23T06:15:00;6.85;;;3.83;;
53263;SDS011;39153;52.680;6.172;2022-07-23T06:17:26;6.95;;;3.53;;
53263;SDS011;39153;52.680;6.172;2022-07-23T06:19:53;6.95;;;3.53;;
53263;SDS011;39153;52.680;6.172;2022-07-23T06:22:19;6.75;;;3.30;;
53263;SDS011;39153;52.680;6.172;2022-07-23T06:24:44;7.68;;;3.40;;
53263;SDS011;39153;52.680;6.172;2022-07-23T06:27:10;6.50;;;3.00;;
53263;SDS011;39153;52.680;6.172;2022-07-23T06:29:36;7.75;;;2.95;;
53263;SDS011;39153;52.680;6.172;2022-07-23T06:32:02;5.40;;;2.60;;
53263;SDS011;39153;52.680;6.172;2022-07-23T06:34:27;7.20;;;2.85;;
53263;SDS011;39153;52.680;6.172;2022-07-23T06:36:53;6.22;;;2.58;;
53263;SDS011;39153;52.680;6.172;2022-07-23T06:39:19;5.22;;;2.08;;
53263;SDS011;39153;52.680;6.172;2022-07-23T06:41:44;7.05;;;2.30;;
53263;SDS011;39153;52.680;6.172;2022-07-23T06:44:10;4.43;;;2.20;;
53263;SDS011;39153;52.680;6.172;2022-07-23T06:46:36;4.00;;;1.90;;
53263;SDS011;39153;52.680;6.172;2022-07-23T06:49:01;3.80;;;1.65;;
53263;SDS011;39153;52.680;6.172;2022-07-23T06:51:29;4.97;;;1.50;;
53263;SDS011;39153;52.680;6.172;2022-07-23T06:53:54;5.07;;;1.67;;
53263;SDS011;39153;52.680;6.172;2022-07-23T06:56:20;2.53;;;1.38;;
53263;SDS011;39153;52.680;6.172;2022-07-23T06:58:46;3.83;;;1.45;;
53263;SDS011;39153;52.680;6.172;2022-07-23T07:01:11;2.85;;;1.38;;
53263;SDS011;39153;52.680;6.172;2022-07-23T07:03:37;3.05;;;1.20;;
53263;SDS011;39153;52.680;6.172;2022-07-23T07:06:03;4.22;;;1.55;;
53263;SDS011;39153;52.680;6.172;2022-07-23T07:08:29;3.10;;;1.10;;
53263;SDS011;39153;52.680;6.172;2022-07-23T07:10:54;5.20;;;1.30;;
53263;SDS011;39153;52.680;6.172;2022-07-23T07:13:20;4.40;;;1.08;;
53263;SDS011;39153;52.680;6.172;2022-07-23T07:15:45;3.50;;;1.20;;
53263;SDS011;39153;52.680;6.172;2022-07-23T07:18:11;2.13;;;1.10;;
53263;SDS011;39153;52.680;6.172;2022-07-23T07:20:37;3.95;;;1.40;;
53263;SDS011;39153;52.680;6.172;2022-07-23T07:23:02;5.28;;;1.45;;
53263;SDS011;39153;52.680;6.172;2022-07-23T07:25:28;3.30;;;1.25;;
53263;SDS011;39153;52.680;6.172;2022-07-23T07:27:54;3.08;;;1.50;;
53263;SDS011;39153;52.680;6.172;2022-07-23T07:30:19;4.20;;;1.15;;
53263;SDS011;39153;52.680;6.172;2022-07-23T07:32:45;7.22;;;1.33;;
53263;SDS011;39153;52.680;6.172;2022-07-23T07:35:11;3.17;;;1.10;;
53263;SDS011;39153;52.680;6.172;2022-07-23T07:37:36;2.05;;;0.90;;
53263;SDS011;39153;52.680;6.172;2022-07-23T07:40:02;4.18;;;1.63;;
53263;SDS011;39153;52.680;6.172;2022-07-23T07:42:28;2.42;;;1.10;;
53263;SDS011;39153;52.680;6.172;2022-07-23T07:44:54;4.47;;;1.50;;
53263;SDS011;39153;52.680;6.172;2022-07-23T07:47:20;4.35;;;1.50;;
53263;SDS011;39153;52.680;6.172;2022-07-23T07:49:45;3.58;;;1.33;;
53263;SDS011;39153;52.680;6.172;2022-07-23T07:52:11;3.70;;;1.25;;
53263;SDS011;39153;52.680;6.172;2022-07-23T07:54:37;4.25;;;1.27;;
53263;SDS011;39153;52.680;6.172;2022-07-23T07:57:02;2.97;;;1.15;;
53263;SDS011;39153;52.680;6.172;2022-07-23T07:59:28;2.60;;;1.00;;
53263;SDS011;39153;52.680;6.172;2022-07-23T08:01:54;3.05;;;1.00;;
53263;SDS011;39153;52.680;6.172;2022-07-23T08:04:20;2.92;;;1.40;;
53263;SDS011;39153;52.680;6.172;2022-07-23T08:06:46;3.55;;;1.27;;
53263;SDS011;39153;52.680;6.172;2022-07-23T08:09:12;2.53;;;1.25;;
53263;SDS011;39153;52.680;6.172;2022-07-23T08:11:38;5.22;;;1.10;;
53263;SDS011;39153;52.680;6.172;2022-07-23T08:14:03;1.60;;;0.88;;
53263;SDS011;39153;52.680;6.172;2022-07-23T08:16:29;2.90;;;1.00;;
53263;SDS011;39153;52.680;6.172;2022-07-23T08:18:55;4.07;;;1.17;;
53263;SDS011;39153;52.680;6.172;2022-07-23T08:21:20;4.93;;;0.93;;
53263;SDS011;39153;52.680;6.172;2022-07-23T08:23:46;2.30;;;0.90;;
53263;SDS011;39153;52.680;6.172;2022-07-23T08:26:12;4.85;;;1.33;;
53263;SDS011;39153;52.680;6.172;2022-07-23T08:28:38;3.65;;;0.90;;
53263;SDS011;39153;52.680;6.172;2022-07-23T08:31:04;2.25;;;0.70;;
53263;SDS011;39153;52.680;6.172;2022-07-23T08:33:30;1.88;;;1.00;;
53263;SDS011;39153;52.680;6.172;2022-07-23T08:35:56;5.45;;;1.27;;
53263;SDS011;39153;52.680;6.172;2022-07-23T08:38:22;4.43;;;0.90;;
53263;SDS011;39153;52.680;6.172;2022-07-23T08:40:49;3.85;;;1.00;;
53263;SDS011;39153;52.680;6.172;2022-07-23T08:43:18;2.88;;;0.85;;
53263;SDS011;39153;52.680;6.172;2022-07-23T08:45:49;1.67;;;0.60;;
53263;SDS011;39153;52.680;6.172;2022-07-23T08:48:17;1.90;;;0.70;;
53263;SDS011;39153;52.680;6.172;2022-07-23T08:50:48;1.58;;;0.70;;
53263;SDS011;39153;52.680;6.172;2022-07-23T08:53:16;2.72;;;0.60;;
53263;SDS011;39153;52.680;6.172;2022-07-23T08:55:51;2.08;;;0.90;;
53263;SDS011;39153;52.680;6.172;2022-07-23T08:58:18;1.52;;;0.70;;
53263;SDS011;39153;52.680;6.172;2022-07-23T09:00:45;2.13;;;0.73;;
53263;SDS011;39153;52.680;6.172;2022-07-23T09:03:15;1.42;;;0.52;;
53263;SDS011;39153;52.680;6.172;2022-07-23T09:08:15;1.58;;;0.60;;
53263;SDS011;39153;52.680;6.172;2022-07-23T09:15:53;1.60;;;0.70;;
53263;SDS011;39153;52.680;6.172;2022-07-23T09:18:27;1.20;;;0.63;;
53263;SDS011;39153;52.680;6.172;2022-07-23T09:21:07;2.22;;;0.80;;
53263;SDS011;39153;52.680;6.172;2022-07-23T09:28:58;2.25;;;0.55;;
53263;SDS011;39153;52.680;6.172;2022-07-23T09:31:31;1.58;;;0.68;;
53263;SDS011;39153;52.680;6.172;2022-07-23T09:34:06;2.15;;;0.80;;
53263;SDS011;39153;52.680;6.172;2022-07-23T09:36:36;1.70;;;0.60;;
53263;SDS011;39153;52.680;6.172;2022-07-23T09:39:02;2.53;;;0.70;;
53263;SDS011;39153;52.680;6.172;2022-07-23T09:41:34;1.10;;;0.60;;
53263;SDS011;39153;52.680;6.172;2022-07-23T09:44:06;2.33;;;0.73;;
53263;SDS011;39153;52.680;6.172;2022-07-23T09:46:41;1.17;;;0.60;;
53263;SDS011;39153;52.680;6.172;2022-07-23T09:49:15;2.38;;;0.80;;
53263;SDS011;39153;52.680;6.172;2022-07-23T09:51:46;1.30;;;0.52;;
53263;SDS011;39153;52.680;6.172;2022-07-23T09:54:22;1.48;;;0.68;;
53263;SDS011;39153;52.680;6.172;2022-07-23T09:56:51;1.73;;;0.77;;
53263;SDS011;39153;52.680;6.172;2022-07-23T09:59:18;1.15;;;0.55;;
53263;SDS011;39153;52.680;6.172;2022-07-23T10:01:48;2.17;;;0.80;;
53263;SDS011;39153;52.680;6.172;2022-07-23T10:04:15;1.40;;;0.60;;
53263;SDS011;39153;52.680;6.172;2022-07-23T10:06:41;2.22;;;0.95;;
53263;SDS011;39153;52.680;6.172;2022-07-23T10:09:10;2.47;;;0.90;;
53263;SDS011;39153;52.680;6.172;2022-07-23T10:11:39;2.03;;;0.70;;
53263;SDS011;39153;52.680;6.172;2022-07-23T10:14:05;2.13;;;0.90;;
53263;SDS011;39153;52.680;6.172;2022-07-23T10:16:31;1.85;;;0.80;;
53263;SDS011;39153;52.680;6.172;2022-07-23T10:18:57;1.20;;;0.57;;
53263;SDS011;39153;52.680;6.172;2022-07-23T10:21:42;1.27;;;0.63;;
53263;SDS011;39153;52.680;6.172;2022-07-23T10:24:30;1.98;;;0.70;;
53263;SDS011;39153;52.680;6.172;2022-07-23T10:32:17;1.38;;;0.52;;
53263;SDS011;39153;52.680;6.172;2022-07-23T10:35:03;1.67;;;0.90;;
53263;SDS011;39153;52.680;6.172;2022-07-23T10:37:49;4.18;;;0.90;;
53263;SDS011;39153;52.680;6.172;2022-07-23T10:40:20;1.80;;;0.63;;
53263;SDS011;39153;52.680;6.172;2022-07-23T10:42:52;1.67;;;0.70;;
53263;SDS011;39153;52.680;6.172;2022-07-23T10:45:30;2.05;;;0.70;;
53263;SDS011;39153;52.680;6.172;2022-07-23T10:50:40;1.70;;;0.98;;
53263;SDS011;39153;52.680;6.172;2022-07-23T10:57:58;1.60;;;0.80;;
53263;SDS011;39153;52.680;6.172;2022-07-23T11:00:26;2.67;;;0.80;;
53263;SDS011;39153;52.680;6.172;2022-07-23T11:02:56;1.80;;;0.82;;
53263;SDS011;39153;52.680;6.172;2022-07-23T11:05:39;2.47;;;0.82;;
53263;SDS011;39153;52.680;6.172;2022-07-23T11:10:46;1.02;;;0.70;;
53263;SDS011;39153;52.680;6.172;2022-07-23T11:37:11;1.67;;;0.90;;
53263;SDS011;39153;52.680;6.172;2022-07-23T11:39:53;2.85;;;1.20;;
53263;SDS011;39153;52.680;6.172;2022-07-23T11:42:20;1.98;;;0.80;;
53263;SDS011;39153;52.680;6.172;2022-07-23T11:44:46;2.58;;;1.00;;
53263;SDS011;39153;52.680;6.172;2022-07-23T11:47:13;2.45;;;1.00;;
53263;SDS011;39153;52.680;6.172;2022-07-23T11:49:39;1.63;;;0.85;;
53263;SDS011;39153;52.680;6.172;2022-07-23T11:52:16;3.60;;;0.80;;
53263;SDS011;39153;52.680;6.172;2022-07-23T11:54:49;2.72;;;0.98;;
53263;SDS011;39153;52.680;6.172;2022-07-23T11:57:18;3.30;;;0.85;;
53263;SDS011;39153;52.680;6.172;2022-07-23T11:59:45;2.33;;;0.90;;
53263;SDS011;39153;52.680;6.172;2022-07-23T12:02:15;2.15;;;0.77;;
53263;SDS011;39153;52.680;6.172;2022-07-23T12:04:42;2.03;;;0.82;;
53263;SDS011;39153;52.680;6.172;2022-07-23T12:10:42;2.08;;;0.80;;
53263;SDS011;39153;52.680;6.172;2022-07-23T12:12:51;2.05;;;0.82;;
53263;SDS011;39153;52.680;6.172;2022-07-23T12:15:22;2.40;;;0.80;;
53263;SDS011;39153;52.680;6.172;2022-07-23T12:17:51;1.30;;;0.80;;
53263;SDS011;39153;52.680;6.172;2022-07-23T12:20:20;2.00;;;0.80;;
53263;SDS011;39153;52.680;6.172;2022-07-23T12:22:48;2.75;;;0.98;;
53263;SDS011;39153;52.680;6.172;2022-07-23T12:25:16;2.40;;;0.82;;
53263;SDS011;39153;52.680;6.172;2022-07-23T12:27:43;2.00;;;0.98;;
53263;SDS011;39153;52.680;6.172;2022-07-23T12:30:19;2.35;;;0.70;;
53263;SDS011;39153;52.680;6.172;2022-07-23T12:32:54;2.15;;;0.80;;
53263;SDS011;39153;52.680;6.172;2022-07-23T12:35:22;2.15;;;0.70;;
53263;SDS011;39153;52.680;6.172;2022-07-23T12:37:59;1.75;;;0.77;;
53263;SDS011;39153;52.680;6.172;2022-07-23T12:40:36;2.65;;;0.88;;
53263;SDS011;39153;52.680;6.172;2022-07-23T12:43:09;1.85;;;0.77;;
53263;SDS011;39153;52.680;6.172;2022-07-23T12:45:43;1.98;;;0.73;;
53263;SDS011;39153;52.680;6.172;2022-07-23T12:48:19;3.03;;;0.80;;
53263;SDS011;39153;52.680;6.172;2022-07-23T12:53:16;3.67;;;0.80;;
53263;SDS011;39153;52.680;6.172;2022-07-23T12:55:43;2.08;;;0.73;;
53263;SDS011;39153;52.680;6.172;2022-07-23T12:58:20;2.17;;;0.90;;
53263;SDS011;39153;52.680;6.172;2022-07-23T13:00:50;2.10;;;0.60;;
53263;SDS011;39153;52.680;6.172;2022-07-23T13:03:32;2.97;;;0.90;;
53263;SDS011;39153;52.680;6.172;2022-07-23T13:06:09;1.92;;;0.77;;
53263;SDS011;39153;52.680;6.172;2022-07-23T13:08:36;1.60;;;0.80;;
53263;SDS011;39153;52.680;6.172;2022-07-23T13:11:04;1.73;;;0.80;;
53263;SDS011;39153;52.680;6.172;2022-07-23T13:13:33;3.78;;;1.00;;
53263;SDS011;39153;52.680;6.172;2022-07-23T13:16:00;2.00;;;0.73;;
53263;SDS011;39153;52.680;6.172;2022-07-23T13:18:26;2.33;;;0.77;;
53263;SDS011;39153;52.680;6.172;2022-07-23T13:20:53;2.58;;;0.90;;
53263;SDS011;39153;52.680;6.172;2022-07-23T13:23:19;1.88;;;0.68;;
53263;SDS011;39153;52.680;6.172;2022-07-23T13:25:45;2.35;;;0.80;;
53263;SDS011;39153;52.680;6.172;2022-07-23T13:28:12;1.70;;;0.80;;
53263;SDS011;39153;52.680;6.172;2022-07-23T13:30:39;2.72;;;0.80;;
53263;SDS011;39153;52.680;6.172;2022-07-23T13:33:05;1.95;;;0.90;;
53263;SDS011;39153;52.680;6.172;2022-07-23T13:35:31;1.92;;;0.80;;
53263;SDS011;39153;52.680;6.172;2022-07-23T13:37:58;2.53;;;0.80;;
53263;SDS011;39153;52.680;6.172;2022-07-23T13:40:24;1.63;;;0.88;;
53263;SDS011;39153;52.680;6.172;2022-07-23T13:42:49;1.88;;;0.70;;
53263;SDS011;39153;52.680;6.172;2022-07-23T13:45:15;2.30;;;0.90;;
53263;SDS011;39153;52.680;6.172;2022-07-23T13:47:41;1.58;;;0.70;;
53263;SDS011;39153;52.680;6.172;2022-07-23T13:50:07;4.88;;;1.25;;
53263;SDS011;39153;52.680;6.172;2022-07-23T13:52:33;1.50;;;0.90;;
53263;SDS011;39153;52.680;6.172;2022-07-23T13:55:00;2.85;;;0.90;;
53263;SDS011;39153;52.680;6.172;2022-07-23T13:57:30;2.03;;;0.73;;
53263;SDS011;39153;52.680;6.172;2022-07-23T13:59:56;1.95;;;0.82;;
53263;SDS011;39153;52.680;6.172;2022-07-23T14:02:22;1.60;;;0.70;;
53263;SDS011;39153;52.680;6.172;2022-07-23T14:04:48;2.75;;;0.90;;
53263;SDS011;39153;52.680;6.172;2022-07-23T14:07:14;1.52;;;0.80;;
53263;SDS011;39153;52.680;6.172;2022-07-23T14:09:41;2.72;;;0.95;;
53263;SDS011;39153;52.680;6.172;2022-07-23T14:12:07;1.55;;;0.90;;
53263;SDS011;39153;52.680;6.172;2022-07-23T14:14:33;2.72;;;0.90;;
53263;SDS011;39153;52.680;6.172;2022-07-23T14:16:59;2.55;;;0.90;;
53263;SDS011;39153;52.680;6.172;2022-07-23T14:19:25;1.77;;;0.80;;
53263;SDS011;39153;52.680;6.172;2022-07-23T14:21:51;2.97;;;0.70;;
53263;SDS011;39153;52.680;6.172;2022-07-23T14:24:16;1.20;;;0.60;;
53263;SDS011;39153;52.680;6.172;2022-07-23T14:26:42;2.05;;;0.80;;
53263;SDS011;39153;52.680;6.172;2022-07-23T14:29:08;3.28;;;0.95;;
53263;SDS011;39153;52.680;6.172;2022-07-23T14:31:34;2.53;;;0.88;;
53263;SDS011;39153;52.680;6.172;2022-07-23T14:34:00;1.85;;;0.85;;
53263;SDS011;39153;52.680;6.172;2022-07-23T14:36:27;2.20;;;0.80;;
53263;SDS011;39153;52.680;6.172;2022-07-23T14:38:52;2.55;;;0.80;;
53263;SDS011;39153;52.680;6.172;2022-07-23T14:41:18;1.33;;;0.73;;
53263;SDS011;39153;52.680;6.172;2022-07-23T14:43:44;2.00;;;0.85;;
53263;SDS011;39153;52.680;6.172;2022-07-23T14:46:10;2.03;;;0.90;;
53263;SDS011;39153;52.680;6.172;2022-07-23T14:48:37;4.60;;;0.95;;
53263;SDS011;39153;52.680;6.172;2022-07-23T14:51:03;2.28;;;0.77;;
53263;SDS011;39153;52.680;6.172;2022-07-23T14:53:29;1.70;;;0.98;;
53263;SDS011;39153;52.680;6.172;2022-07-23T14:55:55;2.33;;;0.95;;
53263;SDS011;39153;52.680;6.172;2022-07-23T14:58:22;2.10;;;0.90;;
53263;SDS011;39153;52.680;6.172;2022-07-23T15:00:48;1.40;;;0.68;;
53263;SDS011;39153;52.680;6.172;2022-07-23T15:03:14;3.65;;;0.88;;
53263;SDS011;39153;52.680;6.172;2022-07-23T15:05:40;1.88;;;0.73;;
53263;SDS011;39153;52.680;6.172;2022-07-23T15:08:06;1.67;;;0.70;;
53263;SDS011;39153;52.680;6.172;2022-07-23T15:10:31;2.05;;;0.80;;
53263;SDS011;39153;52.680;6.172;2022-07-23T15:12:57;2.60;;;0.90;;
53263;SDS011;39153;52.680;6.172;2022-07-23T15:15:23;3.08;;;0.60;;
53263;SDS011;39153;52.680;6.172;2022-07-23T15:17:48;1.20;;;0.60;;
53263;SDS011;39153;52.680;6.172;2022-07-23T15:20:14;1.35;;;0.60;;
53263;SDS011;39153;52.680;6.172;2022-07-23T15:22:40;1.33;;;0.60;;
53263;SDS011;39153;52.680;6.172;2022-07-23T15:25:06;1.42;;;0.60;;
53263;SDS011;39153;52.680;6.172;2022-07-23T15:27:32;1.52;;;0.70;;
53263;SDS011;39153;52.680;6.172;2022-07-23T15:29:57;2.60;;;0.82;;
53263;SDS011;39153;52.680;6.172;2022-07-23T15:32:23;2.13;;;0.60;;
53263;SDS011;39153;52.680;6.172;2022-07-23T15:34:51;2.72;;;0.60;;
53263;SDS011;39153;52.680;6.172;2022-07-23T15:37:18;4.40;;;0.80;;
53263;SDS011;39153;52.680;6.172;2022-07-23T15:39:43;1.08;;;0.60;;
53263;SDS011;39153;52.680;6.172;2022-07-23T15:42:09;1.98;;;0.63;;
53263;SDS011;39153;52.680;6.172;2022-07-23T15:44:35;1.92;;;0.77;;
53263;SDS011;39153;52.680;6.172;2022-07-23T15:47:01;1.75;;;0.70;;
53263;SDS011;39153;52.680;6.172;2022-07-23T15:49:26;2.25;;;0.80;;